Time;durP1;ratioP1;P1;durP2;ratioP2;P2;SDS_P1;SDS_P2;PMS_P1;PMS_P2;Temp;Humidity;BMP_temperature;BMP_pressure;BME280_temperature;BME280_humidity;BME280_pressure;Samples;Min_cycle;Max_cycle;Signal;HPM_P1;HPM_P2
2023/02/27 00:01:00;;;;;;;;;2.75;2.75;;;;;4.34;43.22;101930.44;4867215;29;45421;-75
2023/02/27 00:03:25;;;;;;;;;7.50;4.50;;;;;4.37;43.08;101930.50;4883987;29;46159;-75
2023/02/27 00:05:50;;;;;;;;;5.50;5.50;;;;;4.43;42.50;101953.50;4866844;29;45354;-75
2023/02/27 00:08:16;;;;;;;;;9.25;5.75;;;;;4.37;42.90;101959.56;4881807;29;45488;-75
2023/02/27 00:10:42;;;;;;;;;5.00;5.00;;;;;4.20;43.16;101929.41;4883983;29;45318;-75
2023/02/27 00:13:08;;;;;;;;;4.00;4.00;;;;;3.98;43.33;101917.66;4866976;29;45593;-75
2023/02/27 00:15:34;;;;;;;;;6.50;5.25;;;;;4.20;43.59;101967.28;4866358;29;45553;-75
2023/02/27 00:17:59;;;;;;;;;2.50;2.50;;;;;4.07;43.71;101945.09;4882800;29;45452;-75
2023/02/27 00:20:26;;;;;;;;;9.50;5.25;;;;;4.23;43.15;101966.47;4883540;29;45581;-75
2023/02/27 00:22:51;;;;;;;;;8.00;5.25;;;;;4.23;43.60;101956.75;4883700;29;45415;-75
2023/02/27 00:25:17;;;;;;;;;2.00;2.00;;;;;3.97;43.66;101934.38;4883784;29;45385;-75
2023/02/27 00:27:43;;;;;;;;;3.50;3.50;;;;;4.10;43.62;101957.47;4867035;29;45373;-75
2023/02/27 00:30:12;;;;;;;;;5.50;5.50;;;;;3.81;43.94;101915.69;4865873;29;45570;-75
2023/02/27 00:32:38;;;;;;;;;4.25;4.25;;;;;3.96;44.03;101957.28;4866843;29;47274;-75
2023/02/27 00:35:06;;;;;;;;;6.00;4.25;;;;;3.74;43.71;101910.28;4883101;29;45523;-75
2023/02/27 00:37:33;;;;;;;;;4.25;4.25;;;;;3.80;44.17;101918.28;4865691;29;45333;-75
2023/02/27 00:39:59;;;;;;;;;4.00;4.00;;;;;4.02;44.35;101956.47;4883707;29;45432;-75
2023/02/27 00:42:24;;;;;;;;;5.00;5.00;;;;;3.78;44.04;101922.69;4879567;29;48270;-75
2023/02/27 00:44:50;;;;;;;;;4.00;4.00;;;;;3.99;43.97;101951.13;4865310;29;45323;-75
2023/02/27 00:47:15;;;;;;;;;5.00;5.00;;;;;4.03;44.43;101951.22;4875468;29;46088;-75
2023/02/27 00:49:41;;;;;;;;;4.00;4.00;;;;;4.10;43.84;101969.81;4880378;29;45629;-75
2023/02/27 00:52:06;;;;;;;;;4.00;4.00;;;;;4.10;44.37;101969.81;4884326;29;46716;-75
2023/02/27 00:54:32;;;;;;;;;7.50;5.00;;;;;3.70;44.33;101897.03;4878807;29;45308;-75
2023/02/27 00:56:57;;;;;;;;;5.25;4.50;;;;;3.92;44.58;101949.28;4883030;29;45550;-75
2023/02/27 00:59:23;;;;;;;;;8.50;4.50;;;;;4.01;44.31;101978.47;4876177;29;45583;-75
2023/02/27 01:01:48;;;;;;;;;6.75;3.50;;;;;3.60;44.89;101910.06;4879601;29;45653;-75
2023/02/27 01:04:14;;;;;;;;;1.75;1.75;;;;;3.93;44.76;101965.16;4883145;29;45447;-75
2023/02/27 01:06:39;;;;;;;;;4.00;4.00;;;;;3.68;44.72;101926.94;4866231;29;45431;-75
2023/02/27 01:09:05;;;;;;;;;8.00;5.00;;;;;3.75;45.32;101923.50;4865467;29;45464;-74
2023/02/27 01:11:31;;;;;;;;;6.00;4.50;;;;;3.75;44.86;101917.34;4865907;29;47389;-75
2023/02/27 01:13:56;;;;;;;;;5.00;5.00;;;;;4.05;45.35;101961.78;4882627;29;45414;-75
2023/02/27 01:16:22;;;;;;;;;5.25;4.00;;;;;3.97;44.70;101939.66;4872454;29;45412;-75
2023/02/27 01:18:48;;;;;;;;;4.50;4.25;;;;;4.18;44.48;101968.16;4869417;29;45360;-75
2023/02/27 01:21:13;;;;;;;;;6.00;5.00;;;;;3.78;45.21;101905.06;4882756;29;45437;-75
2023/02/27 01:23:38;;;;;;;;;7.75;4.25;;;;;3.85;44.59;101904.28;4883056;29;45357;-75
2023/02/27 01:26:04;;;;;;;;;4.25;4.00;;;;;3.95;44.42;101912.34;4883308;29;45578;-75
2023/02/27 01:28:29;;;;;;;;;4.00;4.00;;;;;3.96;44.60;101915.00;4882814;29;45362;-75
2023/02/27 01:30:55;;;;;;;;;4.25;4.00;;;;;4.13;44.42;101954.00;4882899;29;45360;-75
2023/02/27 01:33:20;;;;;;;;;6.50;5.25;;;;;3.99;44.57;101930.91;4882967;29;45318;-75
2023/02/27 01:35:46;;;;;;;;;4.75;4.00;;;;;3.80;45.22;101905.09;4866131;29;45336;-75
2023/02/27 01:38:11;;;;;;;;;9.00;5.75;;;;;3.94;44.95;101927.28;4864867;29;45624;-75
2023/02/27 01:40:39;;;;;;;;;5.25;5.25;;;;;3.97;44.95;101918.53;4866129;29;47181;-74
2023/02/27 01:43:06;;;;;;;;;5.25;5.25;;;;;3.99;45.19;101916.78;4882717;29;45739;-75
2023/02/27 01:45:39;;;;;;;;;8.00;3.50;;;;;4.02;44.29;101927.41;4885909;29;45545;-75
2023/02/27 01:48:15;;;;;;;;;5.25;5.00;;;;;3.92;44.83;101909.66;4886160;29;45637;-75
2023/02/27 01:50:56;;;;;;;;;5.75;5.75;;;;;3.85;44.78;101906.03;4868932;29;47740;-75
2023/02/27 01:53:25;;;;;;;;;5.75;5.00;;;;;3.77;45.14;101886.56;4886261;29;45508;-75
2023/02/27 01:55:54;;;;;;;;;6.50;3.50;;;;;3.90;44.86;101904.34;4856660;29;45346;-75
2023/02/27 01:58:21;;;;;;;;;7.75;5.25;;;;;3.94;44.48;101902.63;4868969;29;45486;-75
2023/02/27 02:00:47;;;;;;;;;6.00;4.00;;;;;4.23;44.74;101950.59;4869016;29;47161;-74
2023/02/27 02:03:27;;;;;;;;;5.75;4.25;;;;;3.96;44.96;101903.53;4862625;29;45585;-74
2023/02/27 02:05:55;;;;;;;;;6.00;4.75;;;;;4.21;45.19;101937.38;4862258;29;45484;-75
2023/02/27 02:08:23;;;;;;;;;5.00;5.00;;;;;3.93;45.51;101912.31;4864741;29;45904;-74
2023/02/27 02:10:52;;;;;;;;;8.50;5.00;;;;;4.10;45.30;101943.38;4866827;29;45762;-74
2023/02/27 02:13:19;;;;;;;;;5.50;4.00;;;;;3.98;45.79;101930.88;4866904;29;45472;-75
2023/02/27 02:15:52;;;;;;;;;6.75;5.00;;;;;3.82;46.04;101898.06;4866626;29;45523;-74
2023/02/27 02:18:25;;;;;;;;;6.00;5.00;;;;;3.67;45.16;101890.81;4865569;29;45295;-74
2023/02/27 02:21:18;;;;;;;;;5.00;4.75;;;;;3.68;45.94;101896.13;4852873;29;46214;-74
2023/02/27 02:24:11;;;;;;;;;5.25;4.25;;;;;3.92;45.76;101931.66;4866759;29;45908;-75
2023/02/27 02:26:53;;;;;;;;;6.00;6.00;;;;;3.60;45.37;101876.63;4866939;29;45572;-75
2023/02/27 02:30:07;;;;;;;;;6.00;4.75;;;;;3.69;45.47;101895.25;4866898;29;45542;-74
2023/02/27 02:33:06;;;;;;;;;2.00;2.00;;;;;3.62;45.69;101885.44;4857860;29;46623;-74
2023/02/27 02:35:43;;;;;;;;;4.50;4.00;;;;;3.91;45.52;101932.56;4869866;29;45547;-74
2023/02/27 02:38:44;;;;;;;;;4.50;4.50;;;;;3.59;45.95;101881.88;4865783;29;45423;-74
2023/02/27 02:41:19;;;;;;;;;5.50;4.50;;;;;3.82;46.20;101917.44;4865260;29;45306;-75
2023/02/27 02:44:15;;;;;;;;;2.50;1.00;;;;;3.60;46.02;101883.69;4866440;29;45529;-74
2023/02/27 02:46:46;;;;;;;;;5.75;5.00;;;;;3.92;45.92;101936.94;4876924;29;45725;-74
2023/02/27 02:49:59;;;;;;;;;3.50;3.50;;;;;3.77;46.05;101929.69;4866692;29;45416;-74
2023/02/27 02:52:44;;;;;;;;;4.50;4.50;;;;;3.79;45.59;101932.34;4860104;29;45481;-74
2023/02/27 02:55:21;;;;;;;;;4.75;4.75;;;;;3.80;45.44;101939.44;4857965;29;46376;-74
2023/02/27 02:58:02;;;;;;;;;5.00;5.00;;;;;3.77;46.22;101924.41;4862635;29;45404;-74
2023/02/27 03:00:33;;;;;;;;;5.00;4.75;;;;;3.65;46.42;101906.63;4866728;29;45385;-74
2023/02/27 03:03:08;;;;;;;;;6.50;3.00;;;;;3.87;46.46;101930.72;4864784;29;45497;-74
2023/02/27 03:05:59;;;;;;;;;6.00;5.25;;;;;3.80;46.21;101903.31;4878655;29;46542;-74
2023/02/27 03:08:30;;;;;;;;;5.00;4.00;;;;;4.01;46.03;101938.81;4863760;29;45740;-74
2023/02/27 03:11:02;;;;;;;;;4.00;4.00;;;;;3.70;46.21;101875.88;4868172;29;45366;-74
2023/02/27 03:13:40;;;;;;;;;6.00;5.25;;;;;4.02;46.27;101928.28;4884960;29;46083;-74
2023/02/27 03:16:14;;;;;;;;;3.50;3.50;;;;;3.97;45.59;101911.47;4873340;29;46676;-74
2023/02/27 03:18:48;;;;;;;;;4.75;4.75;;;;;3.88;45.75;101906.97;4884892;29;45771;-74
2023/02/27 03:21:23;;;;;;;;;4.50;4.50;;;;;3.95;45.69;101910.56;4884611;29;45323;-74
2023/02/27 03:23:52;;;;;;;;;2.00;2.00;;;;;3.89;45.78;101903.47;4884827;29;45353;-74
2023/02/27 03:26:22;;;;;;;;;6.00;4.00;;;;;3.98;46.14;101920.31;4867819;29;47197;-74
2023/02/27 03:29:02;;;;;;;;;4.25;4.25;;;;;4.10;45.94;101935.44;4884608;29;45608;-74
2023/02/27 03:31:39;;;;;;;;;4.00;4.00;;;;;3.91;45.32;101924.63;4884855;29;45381;-74
2023/02/27 03:34:21;;;;;;;;;6.50;4.00;;;;;3.81;45.19;101914.75;4876900;29;45682;-74
2023/02/27 03:36:53;;;;;;;;;4.75;4.75;;;;;3.56;45.16;101881.84;4880667;29;46472;-74
2023/02/27 03:39:29;;;;;;;;;6.00;5.00;;;;;3.58;45.70;101890.69;4883732;29;45490;-74
2023/02/27 03:42:04;;;;;;;;;2.00;2.00;;;;;3.57;45.42;101883.63;4854633;29;45355;-74
2023/02/27 03:44:37;;;;;;;;;3.25;3.25;;;;;3.52;45.91;101888.81;4876244;29;45382;-74
2023/02/27 03:47:02;;;;;;;;;2.00;2.00;;;;;3.52;45.38;101891.47;4867175;29;48311;-74
2023/02/27 03:49:28;;;;;;;;;5.25;4.50;;;;;3.32;45.38;101868.31;4874480;29;45381;-74
2023/02/27 03:51:53;;;;;;;;;4.50;2.00;;;;;3.74;46.05;101929.63;4883688;29;45293;-74
2023/02/27 03:54:29;;;;;;;;;6.50;4.00;;;;;3.62;45.72;101908.34;4881964;29;45461;-74
2023/02/27 03:57:01;;;;;;;;;4.00;4.00;;;;;3.62;45.71;101917.13;4870214;29;47259;-74
2023/02/27 03:59:29;;;;;;;;;4.75;4.75;;;;;3.74;45.40;101929.63;4866183;29;45756;-74
2023/02/27 04:01:57;;;;;;;;;5.00;5.00;;;;;3.49;45.83;101891.41;4883054;29;45317;-74
2023/02/27 04:04:23;;;;;;;;;4.00;3.50;;;;;3.56;45.32;101903.88;4883477;29;45515;-74
2023/02/27 04:07:33;;;;;;;;;4.00;3.50;;;;;3.61;45.39;101909.19;4883515;29;45468;-74
2023/02/27 04:10:13;;;;;;;;;2.50;2.00;;;;;3.63;45.38;101907.50;4863420;29;45794;-74
2023/02/27 04:13:00;;;;;;;;;3.00;2.00;;;;;3.81;45.38;101943.81;4884127;29;45360;-74
2023/02/27 04:15:28;;;;;;;;;5.50;3.00;;;;;3.79;45.31;101946.47;4882616;29;46011;-74
2023/02/27 04:18:09;;;;;;;;;5.00;5.00;;;;;3.76;45.58;101958.72;4866796;29;48320;-74
2023/02/27 04:20:46;;;;;;;;;4.00;4.00;;;;;3.39;45.71;101900.06;4882329;29;45388;-74
2023/02/27 04:23:57;;;;;;;;;4.50;4.50;;;;;3.51;45.72;101937.22;4873856;29;45579;-74
2023/02/27 04:26:32;;;;;;;;;5.00;5.00;;;;;3.36;45.99;101902.66;4849352;29;45888;-74
2023/02/27 04:29:13;;;;;;;;;4.00;4.00;;;;;3.61;46.15;101962.91;4871506;29;45671;-74
2023/02/27 04:32:14;;;;;;;;;6.00;6.00;;;;;3.32;45.87;101904.34;4881766;29;45320;-75
2023/02/27 04:34:52;;;;;;;;;4.50;4.00;;;;;3.38;46.20;101929.97;4872447;29;45597;-74
2023/02/27 04:37:27;;;;;;;;;3.00;2.50;;;;;3.68;45.74;101971.81;4881587;29;45442;-74
2023/02/27 04:39:59;;;;;;;;;4.00;4.00;;;;;3.50;45.67;101960.09;4879634;29;46218;-74
2023/02/27 04:42:30;;;;;;;;;4.75;4.75;;;;;3.38;46.18;101943.19;4874585;29;45316;-75
2023/02/27 04:44:59;;;;;;;;;7.50;5.00;;;;;3.56;45.73;101982.16;4883688;29;45395;-74
2023/02/27 04:47:29;;;;;;;;;5.00;5.00;;;;;3.21;46.83;101938.50;4883615;29;45335;-74
2023/02/27 04:50:06;;;;;;;;;5.75;4.50;;;;;3.16;46.89;101934.91;4871323;29;45630;-74
2023/02/27 04:52:44;;;;;;;;;2.50;2.50;;;;;3.19;46.07;101931.41;4864262;29;46065;-75
2023/02/27 04:55:19;;;;;;;;;3.00;3.00;;;;;3.36;46.63;101972.19;4867223;29;45505;-75
2023/02/27 04:57:54;;;;;;;;;8.50;4.00;;;;;3.12;46.45;101940.97;4878732;29;45481;-74
2023/02/27 05:00:23;;;;;;;;;5.00;4.25;;;;;3.33;46.21;101975.66;4879978;29;45530;-74
2023/02/27 05:03:04;;;;;;;;;5.00;5.00;;;;;3.39;46.62;101990.72;4881651;29;45424;-74
2023/02/27 05:05:36;;;;;;;;;5.25;4.00;;;;;3.25;46.18;101971.97;4871863;29;45585;-74
2023/02/27 05:08:27;;;;;;;;;5.50;5.50;;;;;3.46;46.66;101997.00;4883333;29;45366;-74
2023/02/27 05:11:01;;;;;;;;;1.00;1.00;;;;;3.46;46.83;101992.59;4882113;29;46219;-75
2023/02/27 05:13:33;;;;;;;;;4.00;4.00;;;;;3.33;46.77;101974.78;4883113;29;45836;-74
2023/02/27 05:16:08;;;;;;;;;4.50;4.00;;;;;3.41;46.62;101998.63;4883226;29;45464;-74
2023/02/27 05:18:34;;;;;;;;;5.75;4.00;;;;;3.31;46.78;101994.97;4865389;29;45582;-74
2023/02/27 05:21:15;;;;;;;;;5.25;4.50;;;;;3.30;47.30;101987.91;4864891;29;48426;-74
2023/02/27 05:23:49;;;;;;;;;5.00;5.00;;;;;3.35;46.96;102004.72;4882896;29;45810;-74
2023/02/27 05:26:45;;;;;;;;;5.50;2.50;;;;;3.37;47.23;102000.34;4882141;29;45452;-75
2023/02/27 05:29:18;;;;;;;;;3.50;3.50;;;;;3.04;47.73;101966.31;4869783;29;45545;-75
2023/02/27 05:31:52;;;;;;;;;4.75;4.75;;;;;3.06;47.21;101964.63;4881682;29;47164;-75
2023/02/27 05:34:26;;;;;;;;;5.25;4.00;;;;;3.12;47.57;101960.34;4874557;29;45996;-75
2023/02/27 05:37:26;;;;;;;;;5.75;4.00;;;;;3.00;47.03;101951.31;4864608;29;45555;-75
2023/02/27 05:39:52;;;;;;;;;4.00;4.00;;;;;3.44;47.05;102015.44;4852485;29;46144;-75
2023/02/27 05:42:33;;;;;;;;;7.00;4.75;;;;;3.52;47.59;102016.47;4882004;29;45353;-75
2023/02/27 05:45:12;;;;;;;;;6.25;5.75;;;;;3.49;47.13;102019.06;4882165;29;45381;-75
2023/02/27 05:47:43;;;;;;;;;4.25;4.25;;;;;3.46;47.04;102019.00;4864084;29;45567;-75
2023/02/27 05:50:14;;;;;;;;;5.50;5.00;;;;;3.07;47.29;101963.75;4882375;29;45562;-75
2023/02/27 05:52:41;;;;;;;;;6.00;5.00;;;;;3.24;47.19;102004.53;4880894;29;46172;-75
2023/02/27 05:55:13;;;;;;;;;4.25;4.25;;;;;2.92;47.77;101952.06;4875044;29;45954;-75
2023/02/27 05:58:01;;;;;;;;;4.00;4.00;;;;;3.27;47.90;102015.13;4863162;29;45506;-75
2023/02/27 06:00:40;;;;;;;;;5.75;5.00;;;;;3.10;47.52;102001.63;4881385;29;45495;-75
2023/02/27 06:03:06;;;;;;;;;7.75;5.75;;;;;2.87;47.64;101950.19;4849523;29;48266;-75
2023/02/27 06:05:32;;;;;;;;;8.75;8.00;;;;;3.02;47.72;101973.31;4880804;29;45431;-75
2023/02/27 06:07:57;;;;;;;;;4.50;4.50;;;;;3.07;47.92;101979.56;4860146;29;45346;-75
2023/02/27 06:10:22;;;;;;;;;7.50;3.00;;;;;2.94;48.10;101959.97;4880743;29;45294;-75
2023/02/27 06:12:48;;;;;;;;;6.00;5.00;;;;;3.09;47.46;101996.31;4875477;29;45655;-75
2023/02/27 06:15:13;;;;;;;;;7.25;4.25;;;;;3.31;47.54;102038.09;4865630;29;45412;-75
2023/02/27 06:17:39;;;;;;;;;5.00;5.00;;;;;3.05;47.86;101990.09;4886602;29;45451;-75
2023/02/27 06:20:06;;;;;;;;;5.00;4.00;;;;;3.01;48.67;101992.63;4882267;29;45380;-75
2023/02/27 06:22:32;;;;;;;;;6.25;4.00;;;;;3.20;48.10;102007.09;4863474;29;47959;-75
2023/02/27 06:24:58;;;;;;;;;6.25;4.50;;;;;2.94;48.02;101960.88;4865336;29;45432;-75
2023/02/27 06:27:25;;;;;;;;;8.25;6.25;;;;;2.97;48.21;101971.50;4882525;29;45245;-75
2023/02/27 06:29:50;;;;;;;;;6.00;6.00;;;;;3.13;48.33;102014.00;4883333;29;45265;-75
2023/02/27 06:32:16;;;;;;;;;7.25;6.00;;;;;3.17;47.69;102023.72;4885739;29;45310;-76
2023/02/27 06:34:41;;;;;;;;;6.25;5.00;;;;;3.12;47.77;102025.41;4883966;29;45447;-75
2023/02/27 06:37:06;;;;;;;;;1.00;1.00;;;;;2.92;48.21;102003.91;4885877;29;45636;-75
2023/02/27 06:39:32;;;;;;;;;8.25;6.75;;;;;2.77;48.50;101989.59;4884200;29;45458;-75
2023/02/27 06:41:57;;;;;;;;;6.25;5.00;;;;;2.96;48.56;102042.69;4885315;29;45976;-75
2023/02/27 06:44:22;;;;;;;;;5.25;5.00;;;;;2.59;48.57;101986.56;4868295;29;45410;-75
2023/02/27 06:46:48;;;;;;;;;6.75;5.00;;;;;2.89;48.95;102061.88;4874991;29;45632;-75
2023/02/27 06:49:13;;;;;;;;;5.50;5.50;;;;;2.58;48.72;102016.44;4865308;29;45395;-75
2023/02/27 06:51:39;;;;;;;;;5.00;4.00;;;;;2.54;49.51;102019.84;4867871;29;48084;-75
2023/02/27 06:54:04;;;;;;;;;6.25;6.25;;;;;2.53;48.98;102018.06;4883729;29;45369;-75
2023/02/27 06:56:29;;;;;;;;;9.00;4.25;;;;;2.76;49.23;102082.72;4878430;29;45531;-76
2023/02/27 06:58:55;;;;;;;;;5.00;5.00;;;;;2.43;48.87;102027.53;4876901;29;45589;-75
2023/02/27 07:01:25;;;;;;;;;5.00;5.00;;;;;2.64;49.29;102064.00;4864186;29;46480;-67
2023/02/27 07:16:06;;;;;;;;;7.00;5.00;;;;;2.59;49.53;102029.63;4895063;28;45327;-70
2023/02/27 07:18:31;;;;;;;;;5.75;4.50;;;;;2.57;49.08;102026.09;4896185;28;45409;-69
2023/02/27 07:20:57;;;;;;;;;9.25;7.50;;;;;2.56;49.33;102011.13;4910638;28;45878;-70
2023/02/27 07:23:22;;;;;;;;;8.25;7.25;;;;;2.87;49.25;102063.59;4920158;28;46414;-70
2023/02/27 07:25:48;;;;;;;;;6.00;5.50;;;;;2.68;49.15;102046.50;4918726;28;45328;-70
2023/02/27 07:28:14;;;;;;;;;7.50;7.50;;;;;2.59;49.05;102032.28;4893178;28;45684;-70
2023/02/27 07:30:40;;;;;;;;;3.00;3.00;;;;;2.77;49.35;102066.06;4911466;28;45641;-70
2023/02/27 07:33:05;;;;;;;;;1.50;0.50;;;;;2.92;49.19;102105.06;4900307;28;47174;-71
2023/02/27 07:35:31;;;;;;;;;3.50;2.00;;;;;2.57;49.37;102038.34;4903750;28;45783;-71
2023/02/27 07:37:56;;;;;;;;;6.75;6.75;;;;;2.60;49.51;102055.13;4913203;28;45992;-71
2023/02/27 07:40:22;;;;;;;;;5.00;4.00;;;;;2.82;49.50;102081.06;4916099;28;45739;-71
2023/02/27 07:42:48;;;;;;;;;7.75;5.00;;;;;2.75;48.96;102051.94;4911707;28;46501;-70
2023/02/27 07:45:13;;;;;;;;;9.50;8.00;;;;;2.78;48.86;102054.63;4921220;28;45426;-72
2023/02/27 07:47:39;;;;;;;;;7.00;6.25;;;;;2.69;49.22;102041.28;4906371;28;45409;-72
2023/02/27 07:50:05;;;;;;;;;6.75;5.00;;;;;2.92;49.05;102085.69;4909113;28;45602;-72
2023/02/27 07:52:31;;;;;;;;;8.25;7.00;;;;;2.85;48.96;102082.03;4905884;28;46484;-71
2023/02/27 07:54:56;;;;;;;;;3.00;3.00;;;;;2.63;49.37;102046.41;4910206;28;45704;-71
2023/02/27 07:57:22;;;;;;;;;6.50;6.50;;;;;2.85;49.09;102086.41;4907569;28;45673;-72
2023/02/27 07:59:48;;;;;;;;;4.00;4.00;;;;;2.94;49.14;102103.31;4906627;28;45522;-73
2023/02/27 08:02:14;;;;;;;;;5.00;5.00;;;;;2.80;48.37;102093.34;4912323;28;46292;-73
2023/02/27 08:04:40;;;;;;;;;7.25;7.00;;;;;2.67;48.73;102074.59;4912828;28;45442;-73
2023/02/27 08:07:05;;;;;;;;;4.00;2.00;;;;;2.57;48.83;102057.72;4916631;28;45611;-73
2023/02/27 08:09:30;;;;;;;;;7.00;7.00;;;;;2.74;49.36;102091.44;4906769;28;45450;-73
2023/02/27 08:11:57;;;;;;;;;5.75;5.75;;;;;2.88;49.05;102116.38;4900622;28;48112;-73
2023/02/27 08:14:22;;;;;;;;;6.75;5.00;;;;;2.63;49.22;102067.50;4916257;28;45494;-73
2023/02/27 08:16:48;;;;;;;;;7.75;7.50;;;;;2.95;49.24;102114.75;4907873;28;45420;-73
2023/02/27 08:19:13;;;;;;;;;9.50;8.25;;;;;2.78;49.34;102072.22;4893481;28;46282;-74
2023/02/27 08:21:39;;;;;;;;;5.75;5.75;;;;;2.75;48.83;102058.97;4905730;28;45634;-74
2023/02/27 08:24:04;;;;;;;;;4.25;4.25;;;;;2.77;49.08;102076.59;4892754;28;45485;-72
2023/02/27 08:26:30;;;;;;;;;6.25;4.25;;;;;2.74;49.19;102044.88;4909076;28;45592;-74
2023/02/27 08:28:55;;;;;;;;;9.00;6.25;;;;;2.72;48.47;102040.44;4890386;28;45782;-73
2023/02/27 08:31:21;;;;;;;;;8.50;7.00;;;;;2.80;48.46;102052.03;4908628;28;46044;-70
2023/02/27 08:33:46;;;;;;;;;10.00;5.00;;;;;2.76;48.22;102050.19;4909507;28;45494;-73
2023/02/27 08:36:12;;;;;;;;;5.00;5.00;;;;;2.86;48.36;102085.56;4908729;28;45466;-73
2023/02/27 08:38:43;;;;;;;;;8.25;8.00;;;;;3.15;48.83;102117.81;4910366;28;45670;-72
2023/02/27 08:41:08;;;;;;;;;8.00;5.00;;;;;3.11;48.18;102113.34;4918985;28;46483;-75
2023/02/27 08:43:33;;;;;;;;;7.00;7.00;;;;;2.94;48.32;102079.59;4917308;28;45487;-73
2023/02/27 08:45:59;;;;;;;;;7.50;5.50;;;;;3.08;48.33;102100.09;4899484;28;45542;-74
2023/02/27 08:48:24;;;;;;;;;8.00;4.50;;;;;2.81;47.68;102071.38;4910790;28;45622;-75
2023/02/27 08:51:01;;;;;;;;;6.25;6.25;;;;;2.82;47.99;102066.13;4917255;28;46204;-72
2023/02/27 08:53:54;;;;;;;;;;;;;;;;;;;;;
2023/02/27 08:56:47;;;;;;;;;;;;;;;;;;;;;
2023/02/27 08:59:28;;;;;;;;;;;;;;;;;;;;;
2023/02/27 09:01:54;;;;;;;;;5.00;5.00;;;;;2.97;47.34;102068.19;4909182;28;75985;-69
2023/02/27 09:04:40;;;;;;;;;;;;;;;;;;;;;
2023/02/27 09:07:22;;;;;;;;;5.50;5.00;;;;;3.36;47.08;102125.28;4914631;28;69317;-68
2023/02/27 09:10:06;;;;;;;;;;;;;;;;;;;;;
2023/02/27 09:12:45;;;;;;;;;;;;;;;;;;;;;
2023/02/27 09:15:37;;;;;;;;;7.50;7.50;;;;;3.22;46.80;102088.03;4907550;28;71372;-68
2023/02/27 09:21:27;;;;;;;;;8.75;7.50;;;;;3.41;47.31;102091.94;4891666;28;45730;-69
2023/02/27 09:23:53;;;;;;;;;6.00;4.75;;;;;3.36;46.96;102071.56;4916341;28;45992;-69
2023/02/27 09:26:24;;;;;;;;;5.50;5.50;;;;;3.34;46.49;102066.25;4908843;28;45618;-68
2023/02/27 09:29:27;;;;;;;;;;;;;;;;;;;;;
2023/02/27 09:31:53;;;;;;;;;2.00;2.00;;;;;3.84;46.29;102128.78;4912227;28;71982;-68
2023/02/27 09:34:21;;;;;;;;;5.00;4.00;;;;;3.90;45.88;102142.97;4889509;28;47731;-69
2023/02/27 09:37:06;;;;;;;;;6.00;3.00;;;;;3.65;46.28;102095.88;4913231;28;45809;-71
2023/02/27 09:39:45;;;;;;;;;5.75;5.75;;;;;3.77;46.15;102125.13;4901161;28;45491;-76
2023/02/27 09:42:23;;;;;;;;;11.75;7.50;;;;;3.67;45.77;102086.22;4897946;28;45844;-74
2023/02/27 09:46:00;;;;;;;;;;;;;;;;;;;;;
2023/02/27 09:55:46;;;;;;;;;;;;;;;;;;;;;
2023/02/27 09:58:37;;;;;;;;;5.00;5.00;;;;;4.22;45.42;102147.03;4911851;28;75397;-71
2023/02/27 10:01:05;;;;;;;;;6.00;5.00;;;;;4.32;45.28;102146.31;4909305;28;45319;-73
2023/02/27 10:03:36;;;;;;;;;6.00;6.00;;;;;4.36;45.81;102147.25;4912886;28;45538;-73
2023/02/27 10:06:31;;;;;;;;;;;;;;;;;;;;;
2023/02/27 10:09:36;;;;;;;;;4.75;2.50;;;;;4.02;45.29;102093.88;4903650;28;75389;-73
2023/02/27 10:12:30;;;;;;;;;6.00;6.00;;;;;4.17;45.13;102102.03;4915349;28;45802;-73
2023/02/27 10:15:14;;;;;;;;;;;;;;;;;;;;;
2023/02/27 10:18:13;;;;;;;;;;;;;;;;;;;;;
2023/02/27 10:21:05;;;;;;;;;6.00;5.00;;;;;4.26;45.20;102088.09;4913639;28;75040;-73
2023/02/27 10:23:40;;;;;;;;;4.00;4.00;;;;;4.71;45.21;102131.94;4914616;28;45785;-73
2023/02/27 10:26:20;;;;;;;;;5.25;5.00;;;;;4.20;44.14;102036.00;4912918;28;45542;-73
2023/02/27 10:28:56;;;;;;;;;;;;;;;;;;;;;
2023/02/27 10:31:49;;;;;;;;;5.25;5.00;;;;;4.87;43.71;102140.97;4920154;28;75317;-73
2023/02/27 10:34:20;;;;;;;;;3.50;3.00;;;;;4.36;43.53;102050.34;4894190;28;45751;-72
2023/02/27 10:37:02;;;;;;;;;3.00;2.00;;;;;4.86;43.58;102125.06;4899065;23;45911;-67
2023/02/27 10:40:24;;;;;;;;;;;;;;;;;;;;;
2023/02/27 10:46:49;;;;;;;;;2.50;2.50;;;;;5.20;42.62;102163.47;4747604;29;45488;-72
2023/02/27 10:49:35;;;;;;;;;;;;;;;;;;;;;
2023/02/27 10:52:27;;;;;;;;;6.50;5.00;;;;;4.97;41.95;102097.00;4848924;29;71666;-72
2023/02/27 10:55:21;;;;;;;;;2.75;2.75;;;;;4.76;40.77;102064.13;4853055;29;45679;-72
2023/02/27 11:01:26;;;;;;;;;;;;;;;;;;;;;
2023/02/27 11:03:59;;;;;;;;;2.25;2.25;;;;;5.19;40.76;102103.44;4853938;29;71194;-74
2023/02/27 11:06:26;;;;;;;;;2.25;2.25;;;;;4.90;40.82;102039.59;4853365;29;46100;-73
2023/02/27 11:09:26;;;;;;;;;1.25;1.25;;;;;5.55;41.23;102120.59;4863915;29;45775;-73
2023/02/27 11:12:06;;;;;;;;;;;;;;;;;;;;;
2023/02/27 11:17:37;;;;;;;;;2.00;2.00;;;;;5.65;40.97;102095.97;4849111;29;46480;-71
2023/02/27 11:20:05;;;;;;;;;6.00;2.50;;;;;5.54;40.49;102066.72;4863285;29;45795;-71
2023/02/27 11:22:31;;;;;;;;;4.25;4.00;;;;;5.59;40.32;102060.59;4864514;29;45335;-73
2023/02/27 11:25:22;;;;;;;;;2.00;2.00;;;;;5.66;39.59;102063.31;4860248;29;45533;-72
2023/02/27 11:27:50;;;;;;;;;3.00;2.75;;;;;5.71;39.41;102047.44;4863640;29;48518;-72
2023/02/27 11:30:31;;;;;;;;;2.00;2.00;;;;;5.47;40.08;102011.06;4863622;29;45716;-73
2023/02/27 11:33:00;;;;;;;;;5.25;3.00;;;;;5.64;39.94;102043.84;4869773;29;45706;-72
2023/02/27 11:35:31;;;;;;;;;4.00;4.00;;;;;6.04;39.37;102110.47;4863770;29;45475;-73
2023/02/27 11:38:05;;;;;;;;;3.00;3.00;;;;;5.66;39.30;102036.81;4869529;29;46383;-72
2023/02/27 11:40:33;;;;;;;;;2.00;2.00;;;;;5.80;39.28;102060.78;4866027;29;45319;-72
2023/02/27 11:43:44;;;;;;;;;;;;;;;;;;;;;
2023/02/27 11:46:47;;;;;;;;;3.00;3.00;;;;;6.12;39.21;102089.34;4858733;29;71256;-71
2023/02/27 11:49:41;;;;;;;;;4.50;3.00;;;;;5.99;38.45;102059.19;4866884;29;45511;-72
2023/02/27 11:52:07;;;;;;;;;5.25;3.00;;;;;6.18;38.11;102089.41;4878240;29;45751;-72
2023/02/27 11:54:54;;;;;;;;;2.00;2.00;;;;;6.19;38.42;102079.69;4859904;29;45429;-72
2023/02/27 11:57:37;;;;;;;;;2.75;2.25;;;;;6.24;38.51;102100.03;4864465;29;45285;-72
2023/02/27 12:00:25;;;;;;;;;1.50;1.50;;;;;6.22;37.65;102082.34;4863389;29;47104;-72
2023/02/27 12:03:16;;;;;;;;;5.00;3.00;;;;;5.96;38.20;102045.00;4863251;29;45441;-72
2023/02/27 12:05:47;;;;;;;;;3.25;2.75;;;;;6.29;37.48;102093.00;4857801;29;45454;-72
2023/02/27 12:08:32;;;;;;;;;1.75;1.75;;;;;6.06;37.23;102041.56;4876316;29;45348;-71
2023/02/27 12:11:27;;;;;;;;;2.00;2.00;;;;;6.27;36.16;102052.31;4864449;29;45323;-72
2023/02/27 12:14:29;;;;;;;;;2.25;1.00;;;;;6.09;36.84;102020.41;4847279;29;45706;-72
2023/02/27 12:17:13;;;;;;;;;2.00;1.75;;;;;6.14;36.82;102018.66;4870372;29;45449;-72
2023/02/27 12:19:59;;;;;;;;;3.50;3.50;;;;;6.14;36.64;102016.00;4858959;29;45546;-72
2023/02/27 12:22:32;;;;;;;;;3.50;2.00;;;;;6.07;37.17;101974.44;4870375;29;45504;-73
2023/02/27 12:25:30;;;;;;;;;1.50;1.50;;;;;6.56;37.66;102045.41;4880081;29;46607;-72
2023/02/27 12:28:29;;;;;;;;;2.00;2.00;;;;;6.71;36.63;102069.38;4863971;29;45354;-72
2023/02/27 12:31:26;;;;;;;;;3.25;3.25;;;;;6.69;36.61;102073.78;4859757;29;45532;-73
2023/02/27 12:34:20;;;;;;;;;6.50;3.00;;;;;6.40;37.16;102017.91;4862134;29;46432;-72
2023/02/27 12:37:33;;;;;;;;;;;;;;;;;;;;;
2023/02/27 12:40:15;;;;;;;;;1.00;1.00;;;;;6.77;37.07;102063.22;4830995;29;67990;-73
2023/02/27 12:42:59;;;;;;;;;3.00;3.00;;;;;6.78;36.73;102057.03;4856719;29;45724;-73
2023/02/27 12:46:03;;;;;;;;;2.50;2.50;;;;;6.78;36.16;102055.28;4859404;29;46555;-73
2023/02/27 12:48:51;;;;;;;;;;;;;;;;;;;;;
2023/02/27 12:52:03;;;;;;;;;;;;;;;;;;;;;
2023/02/27 12:55:05;;;;;;;;;;;;;;;;;;;;;
2023/02/27 12:58:29;;;;;;;;;3.00;3.00;;;;;6.86;35.36;102031.41;4850729;29;73941;-73
2023/02/27 13:01:50;;;;;;;;;3.00;3.00;;;;;6.90;35.81;102037.59;4856721;29;45685;-73
2023/02/27 13:04:45;;;;;;;;;2.00;2.00;;;;;6.94;35.38;102027.00;4791808;29;45892;-73
2023/02/27 13:07:27;;;;;;;;;2.00;2.00;;;;;6.70;35.87;101984.44;4814305;29;45505;-71
2023/02/27 13:10:01;;;;;;;;;2.00;2.00;;;;;6.72;34.91;101982.72;4837335;29;45537;-71
2023/02/27 13:12:36;;;;;;;;;2.75;1.75;;;;;6.94;34.95;102005.75;4848716;29;45746;-68
2023/02/27 13:15:15;;;;;;;;;2.75;2.00;;;;;7.00;35.28;102011.09;4841691;29;45594;-70